Time;durP1;ratioP1;P1;durP2;ratioP2;P2;SDS_P1;SDS_P2;PMS_P1;PMS_P2;Temp;Humidity;BMP_temperature;BMP_pressure;BME280_temperature;BME280_humidity;BME280_pressure;Samples;Min_cycle;Max_cycle;Signal;HPM_P1;HPM_P2
2022/12/03 00:01:36;;;;;;;28.83;21.83;;;;;;;0.44;96.49;102129.88;5065361;28;20155;-80
2022/12/03 00:04:01;;;;;;;31.35;22.70;;;;;;;0.46;96.97;102129.06;5066899;28;20089;-81
2022/12/03 00:06:28;;;;;;;34.25;23.42;;;;;;;0.46;96.75;102139.53;5074666;28;20115;-81
2022/12/03 00:08:53;;;;;;;30.15;21.45;;;;;;;0.49;97.41;102138.66;5063922;28;20044;-80
2022/12/03 00:11:18;;;;;;;32.50;22.63;;;;;;;0.50;97.37;102132.56;5066256;28;20031;-81
2022/12/03 00:13:44;;;;;;;34.00;23.65;;;;;;;0.47;97.08;102125.56;5065272;28;20506;-81
2022/12/03 00:16:09;;;;;;;32.10;22.65;;;;;;;0.43;97.15;102123.75;5067828;28;20028;-81
2022/12/03 00:18:35;;;;;;;30.95;22.77;;;;;;;0.47;97.40;102124.69;5067712;28;20016;-81
2022/12/03 00:21:00;;;;;;;33.90;23.00;;;;;;;0.49;97.14;102122.94;5068908;28;20074;-81
2022/12/03 00:23:25;;;;;;;31.52;22.35;;;;;;;0.48;97.14;102122.06;5065393;28;20511;-82
2022/12/03 00:25:50;;;;;;;32.58;23.48;;;;;;;0.49;97.24;102118.59;5058268;28;20025;-81
2022/12/03 00:28:16;;;;;;;31.58;22.98;;;;;;;0.42;97.01;102111.53;5066808;28;20024;-82
2022/12/03 00:30:41;;;;;;;31.85;22.67;;;;;;;0.49;97.33;102118.59;5068244;28;20021;-81
2022/12/03 00:33:06;;;;;;;32.60;22.45;;;;;;;0.45;97.40;102111.56;5062968;28;20028;-82
2022/12/03 00:35:31;;;;;;;30.15;22.58;;;;;;;0.49;97.94;102109.84;5061327;28;20040;-81
2022/12/03 00:37:57;;;;;;;31.60;23.42;;;;;;;0.52;97.81;102107.28;5068343;28;20048;-82
2022/12/03 00:40:22;;;;;;;32.03;22.05;;;;;;;0.53;97.77;102113.38;5068432;28;20024;-81
2022/12/03 00:42:47;;;;;;;30.25;22.00;;;;;;;0.47;97.46;102101.97;5067916;28;20067;-81
2022/12/03 00:45:13;;;;;;;30.52;22.65;;;;;;;0.45;97.49;102097.56;5069449;28;20020;-82
2022/12/03 00:47:38;;;;;;;32.28;22.67;;;;;;;0.52;97.57;102101.16;5086050;28;20024;-81
2022/12/03 00:50:04;;;;;;;32.60;23.38;;;;;;;0.52;97.60;102106.41;5074027;28;20020;-81
2022/12/03 00:52:30;;;;;;;32.72;23.58;;;;;;;0.44;97.42;102093.22;5056664;28;20043;-81
2022/12/03 00:54:55;;;;;;;32.90;23.83;;;;;;;0.49;97.31;102107.22;5069288;28;20020;-82
2022/12/03 00:57:20;;;;;;;31.13;22.95;;;;;;;0.44;97.40;102093.22;5068510;28;20021;-82
2022/12/03 00:59:46;;;;;;;31.92;23.67;;;;;;;0.41;97.63;102082.69;5064638;28;20024;-82
2022/12/03 01:02:11;;;;;;;32.58;23.52;;;;;;;0.51;97.67;102099.41;5063993;28;20056;-81
2022/12/03 01:04:36;;;;;;;30.85;23.70;;;;;;;0.49;98.00;102095.00;5050755;28;20191;-82
2022/12/03 01:07:02;;;;;;;32.20;23.40;;;;;;;0.40;97.77;102086.19;5065138;28;20105;-81
2022/12/03 01:09:27;;;;;;;31.33;24.10;;;;;;;0.51;97.55;102110.75;5062471;28;20052;-79
2022/12/03 01:11:52;;;;;;;29.83;22.67;;;;;;;0.50;97.72;102103.75;5053193;28;20545;-81
2022/12/03 01:14:19;;;;;;;33.47;23.92;;;;;;;0.51;97.64;102109.88;5053022;28;20074;-80
2022/12/03 01:16:45;;;;;;;34.33;23.88;;;;;;;0.51;97.64;102110.75;5056202;28;20086;-82
2022/12/03 01:19:14;;;;;;;34.58;25.10;;;;;;;0.48;97.52;102106.34;5060617;28;20033;-81
2022/12/03 01:21:40;;;;;;;32.67;24.23;;;;;;;0.52;97.82;102104.66;5062879;28;20028;-82
2022/12/03 01:24:06;;;;;;;33.83;23.80;;;;;;;0.55;97.95;102107.31;5067428;28;20028;-82
2022/12/03 01:26:31;;;;;;;34.20;24.50;;;;;;;0.47;97.85;102090.63;5068830;28;20548;-81
2022/12/03 01:28:57;;;;;;;36.03;24.65;;;;;;;0.54;97.79;102110.78;5066426;28;20036;-80
2022/12/03 01:34:06;;;;;;;34.55;24.45;;;;;;;0.52;97.91;102103.78;5060650;28;20036;-80
2022/12/03 01:36:33;;;;;;;36.65;25.38;;;;;;;0.55;98.32;102102.06;5065789;28;20414;-82
2022/12/03 01:38:58;;;;;;;34.78;25.33;;;;;;;0.52;97.90;102099.41;5065296;28;20035;-79
2022/12/03 01:41:24;;;;;;;37.60;26.35;;;;;;;0.46;97.81;102100.22;5059333;28;20028;-81
2022/12/03 01:43:51;;;;;;;32.25;24.25;;;;;;;0.48;97.85;102093.25;5065465;28;20028;-81
2022/12/03 01:46:20;;;;;;;35.97;25.98;;;;;;;0.52;97.81;102094.16;5070997;28;20028;-80
2022/12/03 01:48:46;;;;;;;35.47;26.17;;;;;;;0.54;97.80;102099.41;5073170;28;20142;-79
2022/12/03 01:51:13;;;;;;;36.58;25.67;;;;;;;0.54;98.13;102096.78;5061121;28;20467;-81
2022/12/03 01:53:38;;;;;;;38.38;26.67;;;;;;;0.54;98.57;102091.56;5064138;28;20112;-81
2022/12/03 01:56:04;;;;;;;35.45;25.40;;;;;;;0.55;98.42;102098.56;5066289;28;20100;-81
2022/12/03 01:58:30;;;;;;;36.17;26.25;;;;;;;0.57;98.30;102086.34;5065688;28;20024;-82
2022/12/03 02:01:00;;;;;;;35.10;26.00;;;;;;;0.51;98.10;102088.94;5060925;28;20020;-82
2022/12/03 02:03:26;;;;;;;36.53;25.92;;;;;;;0.51;98.36;102088.94;5064148;28;20280;-82
2022/12/03 02:05:52;;;;;;;36.85;26.17;;;;;;;0.56;98.41;102092.47;5067888;28;20055;-81
2022/12/03 02:08:34;;;;;;;39.40;27.52;;;;;;;0.58;98.54;102096.84;5068648;28;20031;-81
2022/12/03 02:11:08;;;;;;;37.53;26.23;;;;;;;0.57;98.58;102089.84;5060981;28;20481;-81
2022/12/03 02:13:34;;;;;;;37.10;26.00;;;;;;;0.57;98.53;102089.84;5064153;28;20024;-80
2022/12/03 02:15:59;;;;;;;36.75;26.85;;;;;;;0.55;98.39;102091.59;5067075;28;20016;-81
2022/12/03 02:18:24;;;;;;;38.00;27.83;;;;;;;0.55;98.74;102086.34;5065576;28;20545;-81
2022/12/03 02:21:05;;;;;;;36.20;26.40;;;;;;;0.61;99.10;102096.88;5062021;28;20040;-81
2022/12/03 02:23:41;;;;;;;38.38;26.63;;;;;;;0.62;98.80;102087.28;5065162;28;20477;-80
2022/12/03 02:26:07;;;;;;;38.38;27.20;;;;;;;0.60;98.69;102091.63;5064941;28;20024;-82
2022/12/03 02:28:33;;;;;;;40.55;27.45;;;;;;;0.59;98.67;102088.13;5069641;28;20051;-82
2022/12/03 02:30:58;;;;;;;40.20;28.63;;;;;;;0.59;98.75;102082.03;5064767;28;20036;-82
2022/12/03 02:33:24;;;;;;;37.53;27.77;;;;;;;0.59;98.74;102082.03;5066873;28;20020;-82
2022/12/03 02:35:49;;;;;;;38.90;27.58;;;;;;;0.55;98.84;102068.00;5066132;28;20101;-80
2022/12/03 02:38:21;;;;;;;38.58;27.52;;;;;;;0.57;98.75;102073.25;5065678;28;20619;-82
2022/12/03 02:40:50;;;;;;;38.47;28.20;;;;;;;0.58;99.19;102077.63;5061296;28;20040;-81
2022/12/03 02:43:17;;;;;;;38.53;27.23;;;;;;;0.56;98.76;102069.75;5055092;28;20028;-82
2022/12/03 02:45:45;;;;;;;37.13;26.85;;;;;;;0.59;98.95;102072.41;5059200;28;20150;-81
2022/12/03 02:48:15;;;;;;;39.50;27.27;;;;;;;0.58;98.58;102081.13;5070573;28;20043;-82
2022/12/03 02:50:45;;;;;;;39.50;27.80;;;;;;;0.57;98.79;102075.88;5060479;28;20428;-81
2022/12/03 02:53:16;;;;;;;38.58;27.45;;;;;;;0.56;98.80;102075.00;5064142;28;20059;-82
2022/12/03 02:55:42;;;;;;;37.25;27.42;;;;;;;0.56;98.85;102069.75;5066805;28;20032;-82
2022/12/03 02:58:09;;;;;;;42.28;29.15;;;;;;;0.55;98.55;102070.63;5072241;28;20020;-80
2022/12/03 03:00:36;;;;;;;39.15;28.52;;;;;;;0.55;98.93;102067.13;5067636;28;20063;-81
2022/12/03 03:03:03;;;;;;;41.38;29.25;;;;;;;0.56;99.17;102066.28;5055678;28;20033;-81
2022/12/03 03:05:29;;;;;;;41.33;28.77;;;;;;;0.56;98.92;102074.13;5058764;28;20082;-81
2022/12/03 03:07:57;;;;;;;41.95;28.60;;;;;;;0.51;99.26;102058.38;5069176;28;20038;-81
2022/12/03 03:10:23;;;;;;;39.63;27.70;;;;;;;0.55;99.32;102059.28;5065499;28;20497;-81
2022/12/03 03:12:51;;;;;;;41.00;28.77;;;;;;;0.56;99.39;102061.03;5057804;28;20029;-81
2022/12/03 03:15:17;;;;;;;41.42;28.90;;;;;;;0.56;99.34;102064.53;5069634;28;20055;-80
2022/12/03 03:17:43;;;;;;;43.08;29.73;;;;;;;0.60;99.63;102068.06;5068439;28;20021;-82
2022/12/03 03:20:09;;;;;;;42.95;28.98;;;;;;;0.58;99.44;102049.69;5065685;28;20029;-82
2022/12/03 03:22:37;;;;;;;40.08;28.17;;;;;;;0.57;99.25;102055.78;5067022;28;20024;-82
2022/12/03 03:25:04;;;;;;;40.22;28.73;;;;;;;0.59;98.97;102061.94;5067057;28;20119;-81
2022/12/03 03:27:30;;;;;;;39.97;27.88;;;;;;;0.55;98.96;102054.03;5070084;28;20132;-81
2022/12/03 03:29:57;;;;;;;39.92;28.20;;;;;;;0.61;99.26;102054.09;5064048;28;20117;-82
2022/12/03 03:32:24;;;;;;;40.72;28.80;;;;;;;0.54;98.96;102058.38;5057751;28;20028;-82
2022/12/03 03:34:49;;;;;;;39.72;28.35;;;;;;;0.58;99.34;102056.66;5065133;28;20036;-82
2022/12/03 03:37:15;;;;;;;43.83;30.20;;;;;;;0.57;99.00;102055.78;5056597;28;20101;-82
2022/12/03 03:39:40;;;;;;;42.03;29.75;;;;;;;0.55;98.91;102052.28;5057072;28;20454;-82
2022/12/03 03:42:05;;;;;;;46.13;30.23;;;;;;;0.53;99.05;102046.16;5065424;28;20151;-80
2022/12/03 03:44:31;;;;;;;41.40;29.73;;;;;;;0.52;99.06;102039.16;5062227;28;20044;-81
2022/12/03 03:46:57;;;;;;;41.50;28.67;;;;;;;0.55;99.36;102047.06;5061474;28;20031;-81
2022/12/03 03:49:22;;;;;;;38.90;28.13;;;;;;;0.54;99.51;102042.66;5064120;28;20016;-81
2022/12/03 03:51:48;;;;;;;42.78;29.63;;;;;;;0.56;99.70;102042.69;5059794;28;20073;-81
2022/12/03 03:54:14;;;;;;;42.90;30.60;;;;;;;0.52;99.19;102039.16;5065553;28;20046;-81
2022/12/03 03:56:39;;;;;;;39.58;28.40;;;;;;;0.56;99.38;102042.69;5065646;28;20034;-82
2022/12/03 03:59:05;;;;;;;43.00;30.20;;;;;;;0.56;99.57;102034.84;5062754;28;20024;-81
2022/12/03 04:01:31;;;;;;;43.78;30.50;;;;;;;0.57;99.70;102047.06;5051276;28;20493;-82
2022/12/03 04:03:58;;;;;;;42.97;31.00;;;;;;;0.57;99.61;102036.56;5065607;28;20044;-81
2022/12/03 04:06:24;;;;;;;42.80;29.88;;;;;;;0.55;99.56;102038.31;5065689;28;20078;-81
2022/12/03 04:08:49;;;;;;;41.50;28.92;;;;;;;0.55;99.58;102028.72;5066829;28;20045;-82
2022/12/03 04:13:58;;;;;;;;;;;;;;;0.63;99.44;102037.53;5064675;28;20090;-82
2022/12/03 04:16:24;;;;;;;44.20;30.97;;;;;;;0.58;100.00;102030.47;5062758;28;19951;-81
2022/12/03 04:18:49;;;;;;;43.22;30.50;;;;;;;0.58;99.48;102038.31;5059607;28;20512;-81
2022/12/03 04:24:03;;;;;;;42.50;29.95;;;;;;;0.54;99.55;102041.78;5064752;28;20047;-81
2022/12/03 04:29:13;;;;;;;45.45;30.90;;;;;;;0.51;99.44;102028.69;5065781;28;20089;-81
2022/12/03 04:37:07;;;;;;;43.42;31.30;;;;;;;0.53;99.70;102030.44;5066371;28;20051;-81
2022/12/03 04:39:32;;;;;;;42.83;30.15;;;;;;;0.53;99.79;102037.41;5064660;28;20024;-81
2022/12/03 04:41:58;;;;;;;45.28;30.40;;;;;;;0.55;99.63;102033.09;5062621;28;20047;-81
2022/12/03 04:44:32;;;;;;;45.08;30.38;;;;;;;0.51;99.46;102032.16;5067514;28;20042;-81
2022/12/03 04:47:03;;;;;;;41.22;30.58;;;;;;;0.55;99.81;102038.31;5067288;28;20508;-81
2022/12/03 04:49:29;;;;;;;43.88;30.65;;;;;;;0.53;99.64;102034.78;5065586;28;20035;-81
2022/12/03 04:51:54;;;;;;;44.25;30.52;;;;;;;0.55;99.93;102030.47;5063857;28;20352;-81
2022/12/03 04:54:19;;;;;;;44.25;31.17;;;;;;;0.53;99.81;102033.03;5067729;28;20085;-81
2022/12/03 04:56:45;;;;;;;44.47;31.80;;;;;;;0.55;99.90;102030.47;5066438;28;20024;-81
2022/12/03 04:59:10;;;;;;;43.60;30.58;;;;;;;0.49;100.00;102021.66;5062556;28;20429;-80
2022/12/03 05:01:36;;;;;;;42.67;30.23;;;;;;;0.54;100.00;102029.56;5063857;28;20063;-82
2022/12/03 05:04:01;;;;;;;41.47;30.52;;;;;;;0.53;99.78;102026.94;5068034;28;20024;-81
2022/12/03 05:06:26;;;;;;;45.97;30.67;;;;;;;0.47;99.59;102023.41;5068691;28;20107;-81
2022/12/03 05:08:51;;;;;;;45.63;31.60;;;;;;;0.51;99.82;102029.56;5069950;28;20557;-81
2022/12/03 05:11:17;;;;;;;43.60;29.77;;;;;;;0.49;100.00;102026.03;5059278;28;20048;-82
2022/12/03 05:13:42;;;;;;;45.97;31.65;;;;;;;0.53;100.00;102021.69;5066868;28;20025;-82
2022/12/03 05:16:07;;;;;;;46.50;31.58;;;;;;;0.51;100.00;102018.19;5062332;28;20021;-82
2022/12/03 05:18:33;;;;;;;44.90;31.75;;;;;;;0.52;100.00;102025.19;5071505;28;20496;-82
2022/12/03 05:20:58;;;;;;;44.67;31.95;;;;;;;0.51;100.00;102026.06;5063711;28;20235;-81
2022/12/03 05:23:24;;;;;;;43.15;30.90;;;;;;;0.46;100.00;102008.56;5055320;28;20039;-82
2022/12/03 05:25:49;;;;;;;45.22;32.03;;;;;;;0.49;100.00;102012.94;5069463;28;20028;-81
2022/12/03 05:28:14;;;;;;;44.45;31.08;;;;;;;0.49;100.00;102016.41;5088979;28;20046;-82
2022/12/03 05:30:40;;;;;;;46.72;30.75;;;;;;;0.47;99.90;102012.91;5062684;28;20025;-81
2022/12/03 05:33:05;;;;;;;45.97;33.22;;;;;;;0.41;100.00;101999.75;5057462;28;20049;-82
2022/12/03 05:35:30;;;;;;;45.78;32.33;;;;;;;0.49;100.00;102013.81;5067656;28;20042;-82
2022/12/03 05:37:56;;;;;;;46.47;31.58;;;;;;;0.44;100.00;102010.25;5067980;28;20028;-82
2022/12/03 05:40:21;;;;;;;45.58;32.30;;;;;;;0.48;100.00;102006.81;5065413;28;20040;-81
2022/12/03 05:42:52;;;;;;;48.03;33.20;;;;;;;0.47;100.00;102007.69;5061802;28;20116;-80
2022/12/03 05:45:39;;;;;;;47.58;32.72;;;;;;;0.48;100.00;102001.56;5065903;28;20023;-81
2022/12/03 05:48:07;;;;;;;47.47;34.00;;;;;;;0.46;100.00;102011.19;5072599;28;20034;-82
2022/12/03 05:50:35;;;;;;;47.53;33.10;;;;;;;0.46;100.00;102003.31;5063115;28;20039;-82
2022/12/03 05:53:00;;;;;;;46.92;32.83;;;;;;;0.49;100.00;102010.31;5066163;28;20048;-82
2022/12/03 05:55:26;;;;;;;46.08;32.08;;;;;;;0.44;100.00;101996.28;5065959;28;20028;-81
2022/12/03 05:57:52;;;;;;;46.28;32.15;;;;;;;0.42;100.00;101991.06;5062320;28;20021;-80
2022/12/03 06:00:26;;;;;;;47.05;32.72;;;;;;;0.46;100.00;101998.06;5059355;28;20035;-80
2022/12/03 06:02:52;;;;;;;49.15;34.15;;;;;;;0.46;100.00;101994.56;5046590;28;20707;-81
2022/12/03 06:05:21;;;;;;;49.60;34.03;;;;;;;0.46;100.00;101995.47;5047809;28;20107;-81
2022/12/03 06:07:48;;;;;;;48.70;32.28;;;;;;;0.43;100.00;101997.16;5048058;28;20027;-82
2022/12/03 06:10:16;;;;;;;46.67;32.03;;;;;;;0.44;100.00;101999.78;5062759;28;20044;-81
2022/12/03 06:12:41;;;;;;;48.92;33.55;;;;;;;0.45;100.00;101993.69;5066360;28;20093;-80
2022/12/03 06:15:08;;;;;;;47.97;31.98;;;;;;;0.46;100.00;101989.31;5066063;28;20282;-80
2022/12/03 06:17:33;;;;;;;48.38;33.33;;;;;;;0.43;100.00;101986.69;5056125;28;20021;-81
2022/12/03 06:19:59;;;;;;;46.97;32.40;;;;;;;0.42;100.00;101991.06;5058069;28;20035;-81
2022/12/03 06:22:24;;;;;;;46.40;31.60;;;;;;;0.42;100.00;101992.81;5067393;28;20034;-81
2022/12/03 06:24:49;;;;;;;48.45;32.08;;;;;;;0.43;100.00;101992.81;5067207;28;20024;-81
2022/12/03 06:27:15;;;;;;;47.88;30.77;;;;;;;0.42;100.00;101991.06;5077504;28;20073;-80
2022/12/03 06:29:40;;;;;;;46.92;31.50;;;;;;;0.40;100.00;101984.91;5080697;28;20444;-82
2022/12/03 06:32:06;;;;;;;45.90;30.10;;;;;;;0.38;100.00;101989.28;5065831;28;20032;-81
2022/12/03 06:34:31;;;;;;;46.55;31.77;;;;;;;0.42;100.00;101988.44;5066714;28;20099;-81
2022/12/03 06:36:56;;;;;;;47.08;32.03;;;;;;;0.38;100.00;101984.03;5066345;28;20132;-80
2022/12/03 06:39:22;;;;;;;46.35;30.98;;;;;;;0.42;100.00;101985.81;5065911;28;20244;-81
2022/12/03 06:41:47;;;;;;;48.38;32.75;;;;;;;0.43;100.00;101990.19;5057866;28;20138;-81
2022/12/03 06:44:13;;;;;;;50.78;34.15;;;;;;;0.42;100.00;101991.06;5064807;28;20035;-80
2022/12/03 06:46:38;;;;;;;47.53;32.70;;;;;;;0.41;100.00;101997.13;5073293;28;20115;-81
2022/12/03 06:49:04;;;;;;;47.35;32.30;;;;;;;0.41;100.00;101994.50;5066657;28;20025;-80
2022/12/03 06:51:29;;;;;;;49.90;32.67;;;;;;;0.41;100.00;101988.41;5049551;28;20159;-80
2022/12/03 06:53:54;;;;;;;44.00;30.73;;;;;;;0.42;100.00;101990.19;5066621;28;20123;-81
2022/12/03 06:56:19;;;;;;;46.22;32.00;;;;;;;0.41;100.00;101994.50;5065338;28;20028;-81
2022/12/03 06:58:45;;;;;;;44.80;31.52;;;;;;;0.39;100.00;101985.78;5066540;28;20028;-81
2022/12/03 07:01:10;;;;;;;48.65;32.22;;;;;;;0.38;100.00;101983.16;5062216;28;20035;-81
2022/12/03 07:03:35;;;;;;;45.65;32.42;;;;;;;0.41;100.00;101986.66;5061644;28;20111;-81
2022/12/03 07:06:01;;;;;;;44.75;31.10;;;;;;;0.39;100.00;101984.91;5065671;28;20570;-81
2022/12/03 07:08:26;;;;;;;43.47;30.50;;;;;;;0.43;100.00;101987.56;5065885;28;20074;-81
2022/12/03 07:10:52;;;;;;;47.55;32.47;;;;;;;0.41;100.00;101988.41;5062275;28;20156;-81
2022/12/03 07:13:17;;;;;;;45.75;32.33;;;;;;;0.40;100.00;101987.53;5064064;28;20028;-81
2022/12/03 07:15:43;;;;;;;48.78;32.25;;;;;;;0.41;100.00;101988.41;5058015;28;20027;-81
2022/12/03 07:18:08;;;;;;;47.35;32.38;;;;;;;0.42;100.00;101990.19;5065699;28;20032;-80
2022/12/03 07:20:33;;;;;;;48.03;32.03;;;;;;;0.42;100.00;101998.03;5065619;28;20051;-81
2022/12/03 07:22:59;;;;;;;48.20;31.23;;;;;;;0.41;100.00;101994.50;5070305;28;20541;-81
2022/12/03 07:25:24;;;;;;;49.45;32.90;;;;;;;0.39;100.00;101993.63;5069769;28;20051;-80
2022/12/03 07:27:49;;;;;;;49.45;31.73;;;;;;;0.41;100.00;101989.28;5073017;28;20130;-81
2022/12/03 07:30:15;;;;;;;48.30;31.27;;;;;;;0.40;100.00;101987.53;5073811;28;20020;-81
2022/12/03 07:32:40;;;;;;;45.78;32.03;;;;;;;0.38;100.00;101978.78;5081266;28;20020;-81
2022/12/03 07:35:06;;;;;;;49.00;32.03;;;;;;;0.44;100.00;101993.69;5067333;28;20525;-80
2022/12/03 07:37:32;;;;;;;46.40;31.20;;;;;;;0.42;100.00;101987.56;5066285;28;20217;-81
2022/12/03 07:39:58;;;;;;;43.42;30.30;;;;;;;0.38;100.00;101981.41;5059570;28;20033;-81
2022/12/03 07:42:23;;;;;;;49.83;31.67;;;;;;;0.40;100.00;101979.66;5064797;28;20735;-81
2022/12/03 07:44:48;;;;;;;48.70;31.17;;;;;;;0.44;100.00;101977.97;5065676;28;20611;-81
2022/12/03 07:47:13;;;;;;;46.72;30.33;;;;;;;0.42;100.00;101982.31;5068661;28;20028;-81
2022/12/03 07:49:39;;;;;;;42.42;29.05;;;;;;;0.46;100.00;101992.84;5056490;28;20029;-81
2022/12/03 07:52:06;;;;;;;43.42;28.55;;;;;;;0.44;100.00;101984.06;5064047;28;20115;-81
2022/12/03 07:54:31;;;;;;;42.30;29.50;;;;;;;0.44;100.00;101978.84;5066691;28;20115;-80
2022/12/03 07:56:56;;;;;;;46.95;30.50;;;;;;;0.50;100.00;101991.09;5064850;28;20116;-81
2022/12/03 07:59:22;;;;;;;43.50;28.80;;;;;;;0.49;100.00;101990.22;5065967;28;20049;-82
2022/12/03 08:01:47;;;;;;;45.20;29.10;;;;;;;0.51;100.00;101994.63;5069591;28;20050;-82
2022/12/03 08:04:13;;;;;;;44.47;29.58;;;;;;;0.52;100.00;101989.38;5061486;28;20027;-82
2022/12/03 08:06:39;;;;;;;46.70;30.30;;;;;;;0.54;100.00;101997.25;5072201;28;20024;-81
2022/12/03 08:09:04;;;;;;;46.00;30.45;;;;;;;0.54;99.72;101998.13;5068819;28;20278;-81
2022/12/03 08:11:31;;;;;;;44.85;30.23;;;;;;;0.58;99.66;101993.78;5069451;28;20171;-80
2022/12/03 08:13:57;;;;;;;45.22;29.60;;;;;;;0.59;99.51;102000.81;5065155;28;20058;-81
2022/12/03 08:16:23;;;;;;;43.63;28.98;;;;;;;0.63;99.88;102000.84;5059965;28;20139;-81
2022/12/03 08:18:49;;;;;;;45.30;29.55;;;;;;;0.62;99.10;102001.69;5048277;28;20151;-86
2022/12/03 08:21:18;;;;;;;44.83;29.30;;;;;;;0.63;99.34;102003.47;5079755;28;20778;-80
2022/12/03 08:23:43;;;;;;;44.55;28.45;;;;;;;0.64;99.07;102004.34;5060917;28;20044;-81
2022/12/03 08:26:19;;;;;;;45.42;29.38;;;;;;;0.66;99.35;102006.09;5060942;28;20025;-82
2022/12/03 08:28:45;;;;;;;46.38;29.70;;;;;;;0.72;99.46;102005.28;5062736;28;20037;-83
2022/12/03 08:31:18;;;;;;;46.63;29.90;;;;;;;0.69;98.96;102003.50;5059195;28;20051;-83
2022/12/03 08:33:45;;;;;;;44.22;28.60;;;;;;;0.66;98.00;101999.97;5067001;28;20032;-81
2022/12/03 08:36:16;;;;;;;43.80;27.80;;;;;;;0.66;98.27;102010.44;5056209;28;20031;-80
2022/12/03 08:38:51;;;;;;;43.78;27.92;;;;;;;0.69;98.46;102002.63;5055125;28;20386;-81
2022/12/03 08:42:40;;;;;;;43.60;27.40;;;;;;;0.61;97.35;101999.94;5063598;28;20074;-82
2022/12/03 08:44:13;;;;;;;42.67;26.70;;;;;;;0.59;97.32;101999.06;5055844;28;20036;-81
2022/12/03 08:46:38;;;;;;;39.85;25.55;;;;;;;0.64;97.26;102001.72;5065485;28;20102;-81
2022/12/03 08:49:03;;;;;;;40.70;26.55;;;;;;;0.61;96.38;102001.69;5060808;28;20129;-82
2022/12/03 08:51:29;;;;;;;40.45;26.38;;;;;;;0.61;96.52;102001.69;5064151;28;20466;-81
2022/12/03 08:54:02;;;;;;;38.90;26.17;;;;;;;0.60;96.46;102005.19;5062413;28;20068;-82
2022/12/03 08:56:31;;;;;;;42.50;26.23;;;;;;;0.57;96.59;102005.13;5068693;28;20382;-82
2022/12/03 08:58:58;;;;;;;38.83;24.98;;;;;;;0.59;95.68;102003.44;5071004;28;20055;-83
2022/12/03 09:01:39;;;;;;;40.45;24.58;;;;;;;0.58;95.66;102012.13;5069448;28;20035;-83
2022/12/03 09:04:22;;;;;;;35.45;24.30;;;;;;;0.57;95.52;102019.13;5065405;28;20081;-82
2022/12/03 09:06:49;;;;;;;38.23;24.33;;;;;;;0.55;94.31;102014.75;5063852;28;20021;-81
2022/12/03 09:09:15;;;;;;;37.60;24.88;;;;;;;0.55;94.76;102006.88;5063427;28;20049;-82
2022/12/03 09:11:42;;;;;;;38.53;24.45;;;;;;;0.56;94.38;102013.88;5067385;28;20092;-81
2022/12/03 09:14:07;;;;;;;36.85;24.95;;;;;;;0.52;94.12;102012.09;5063490;28;20021;-81
2022/12/03 09:16:33;;;;;;;36.58;24.95;;;;;;;0.55;93.89;102013.00;5061870;28;20032;-83
2022/12/03 09:18:58;;;;;;;38.45;24.45;;;;;;;0.53;93.16;102017.31;5054529;28;20032;-83
2022/12/03 09:21:23;;;;;;;37.38;25.58;;;;;;;0.49;92.92;102012.94;5065740;28;20024;-82
2022/12/03 09:23:49;;;;;;;39.35;25.98;;;;;;;0.50;93.04;102004.19;5064901;28;20032;-81
2022/12/03 09:26:14;;;;;;;37.05;25.58;;;;;;;0.52;93.25;102012.09;5057775;28;20028;-83
2022/12/03 09:28:39;;;;;;;40.80;25.52;;;;;;;0.54;93.66;102011.22;5064201;28;20032;-82
2022/12/03 09:31:04;;;;;;;38.13;25.52;;;;;;;0.56;93.44;102014.75;5061091;28;20059;-82
2022/12/03 09:33:31;;;;;;;38.38;24.70;;;;;;;0.59;93.34;102011.28;5064440;28;20111;-81
2022/12/03 09:35:57;;;;;;;38.65;25.58;;;;;;;0.60;92.75;102007.78;5062337;28;20079;-83
2022/12/03 09:38:23;;;;;;;37.25;24.67;;;;;;;0.62;93.12;102008.66;5064439;28;20052;-83
2022/12/03 09:40:48;;;;;;;38.10;25.88;;;;;;;0.63;93.03;102006.09;5066812;28;20060;-83
2022/12/03 09:43:14;;;;;;;38.92;26.23;;;;;;;0.64;92.94;102005.22;5068947;28;20016;-82
2022/12/03 09:45:39;;;;;;;37.80;25.10;;;;;;;0.61;93.16;101996.44;5070428;28;20017;-83
2022/12/03 09:48:04;;;;;;;41.58;26.30;;;;;;;0.67;93.58;101999.09;5084778;28;20079;-83
2022/12/03 09:50:31;;;;;;;39.90;26.75;;;;;;;0.65;93.29;101993.84;5072318;28;20044;-82
2022/12/03 09:53:00;;;;;;;39.70;25.50;;;;;;;0.70;93.13;101991.28;5084546;28;20501;-82
2022/12/03 09:55:27;;;;;;;39.10;26.15;;;;;;;0.75;93.19;101984.31;5066389;28;20032;-84
2022/12/03 09:57:54;;;;;;;38.45;24.50;;;;;;;0.75;92.68;101984.31;5071552;28;20032;-83
2022/12/03 10:00:25;;;;;;;40.03;25.02;;;;;;;0.75;92.66;101981.69;5058515;28;20028;-83
2022/12/03 10:02:53;;;;;;;40.13;24.98;;;;;;;0.74;91.97;101980.81;5067553;28;20021;-82
2022/12/03 10:05:20;;;;;;;38.38;25.50;;;;;;;0.70;92.35;101983.41;5068554;28;20032;-81
2022/12/03 10:07:47;;;;;;;39.03;25.90;;;;;;;0.70;91.81;101975.56;5077335;28;20024;-82
2022/12/03 10:10:22;;;;;;;39.53;26.90;;;;;;;0.72;91.72;101981.69;5049241;28;20037;-84
2022/12/03 10:12:51;;;;;;;37.28;26.15;;;;;;;0.69;91.28;101968.56;5048531;28;20067;-82
2022/12/03 10:15:20;;;;;;;35.17;24.08;;;;;;;0.68;91.41;101977.31;5050579;28;20029;-82
2022/12/03 10:17:48;;;;;;;36.65;25.48;;;;;;;0.65;91.83;101970.28;5062723;28;20021;-83
2022/12/03 10:20:16;;;;;;;37.47;24.92;;;;;;;0.69;92.28;101976.44;5058417;28;20101;-90
2022/12/03 10:22:42;;;;;;;37.60;25.60;;;;;;;0.66;92.00;101952.81;5067215;28;20488;-82
2022/12/03 10:25:13;;;;;;;33.50;24.33;;;;;;;0.65;91.49;101959.78;5058091;28;20052;-83
2022/12/03 10:27:40;;;;;;;35.67;24.35;;;;;;;0.61;91.14;101954.53;5064963;28;20031;-82
2022/12/03 10:30:18;;;;;;;35.15;23.23;;;;;;;0.63;91.20;101952.81;5064693;28;20039;-82
2022/12/03 10:32:49;;;;;;;36.25;23.90;;;;;;;0.64;91.30;101951.94;5066157;28;20116;-83
2022/12/03 10:35:19;;;;;;;35.75;24.27;;;;;;;0.66;90.50;101952.81;5073883;28;20033;-82
2022/12/03 10:38:01;;;;;;;37.00;25.50;;;;;;;0.69;90.96;101942.34;5066476;28;20029;-83
2022/12/03 10:40:38;;;;;;;35.88;24.70;;;;;;;0.70;91.33;101942.34;5066771;28;20036;-81
2022/12/03 10:43:18;;;;;;;34.10;24.27;;;;;;;0.81;91.54;101939.81;5065611;28;20029;-82
2022/12/03 10:45:46;;;;;;;38.28;23.65;;;;;;;0.82;90.57;101935.47;5059238;28;20036;-82
2022/12/03 10:48:25;;;;;;;35.38;23.85;;;;;;;0.84;90.10;101921.50;5055223;28;20020;-82
2022/12/03 10:50:53;;;;;;;35.70;24.45;;;;;;;0.83;90.17;101913.63;5065041;28;20012;-82
2022/12/03 10:53:21;;;;;;;37.15;25.63;;;;;;;0.87;89.73;101921.50;5065734;28;20078;-83
2022/12/03 10:55:50;;;;;;;37.15;25.23;;;;;;;0.88;89.21;101912.81;5059112;28;20035;-83
2022/12/03 10:58:24;;;;;;;36.95;24.90;;;;;;;0.87;89.50;101916.25;5054758;28;20032;-83
2022/12/03 11:00:53;;;;;;;39.20;25.48;;;;;;;0.88;89.67;101915.41;5065249;28;20036;-82
2022/12/03 11:03:29;;;;;;;37.33;25.17;;;;;;;0.84;89.65;101915.41;5065470;28;20020;-81
2022/12/03 11:05:56;;;;;;;38.42;25.50;;;;;;;0.91;89.56;101911.91;5065673;28;20029;-83
2022/12/03 11:08:28;;;;;;;37.78;25.98;;;;;;;0.83;89.08;101903.13;5069696;28;20032;-82
2022/12/03 11:10:59;;;;;;;41.97;26.58;;;;;;;0.91;89.66;101907.56;5051913;28;20142;-81
2022/12/03 11:13:33;;;;;;;47.60;27.50;;;;;;;0.93;89.57;101907.59;5066881;28;20028;-82
2022/12/03 11:16:00;;;;;;;36.75;24.95;;;;;;;0.89;88.82;101905.81;5067050;28;20512;-82
2022/12/03 11:18:35;;;;;;;36.35;25.25;;;;;;;0.92;89.07;101897.94;5062754;28;20548;-82
2022/12/03 11:21:01;;;;;;;35.15;24.15;;;;;;;0.88;88.81;101899.69;5066519;28;20029;-82
2022/12/03 11:23:45;;;;;;;36.15;24.60;;;;;;;0.93;89.64;101897.09;5065156;28;20056;-83
2022/12/03 11:26:25;;;;;;;37.60;25.45;;;;;;;0.89;89.24;101900.56;5066000;28;20111;-82
2022/12/03 11:28:53;;;;;;;37.67;25.77;;;;;;;0.81;88.91;101895.28;5049868;28;20035;-83
2022/12/03 11:31:39;;;;;;;38.08;26.15;;;;;;;0.83;89.68;101893.53;5044268;28;20031;-82